Montrose, CO

12:34 AM MDT on September 04, 2015 (GMT -0600)
APRSWXNET | | Change Station
CLOSE
Current Station
Personal Weather Station
Location: Montrose, CO
Elevation: 5764 ft
Nearby Weather Stations

Elev 5764 ft 38.51 °N, 107.96 °W | Updated 14 minutes ago

Clear
Clear
56.0 °F
Feels Like 56.0 °F
N
2.0
Wind Variable Wind from SE
Gusts 3.0 mph

Today
High -- | Low -- °F
--% Chance of Precip.
Yesterday
High -- | Low -- °F
Precip. -- in
6:43 AM 7:37 PM
Waning Gibbous, 62% visible
Pressure 29.87 in
Visibility 10.0 miles
Clouds Clear
Dew Point 48.0 °F
Humidity 75%
Rainfall in
Snow Depth Not available.
UV 0 out of 12
Pollen 8.00 out of 12
Air Quality Not available.
Flu Activity Not available.
METAR KMTJ 040553Z AUTO 13008KT 10SM CLR 17/09 A3006 RMK AO2 SLP113 T01670094 10256 20156 50001
Pressure 29.87 in
Visibility 10.0 miles
Clouds Clear
Dew Point 48.0 °F
Humidity 75%
Rainfall in
Snow Depth Not available.
UV 0 out of 12
Pollen 8.00 out of 12
Air Quality Not available.
Flu Activity Not available.
METAR KMTJ 040553Z AUTO 13008KT 10SM CLR 17/09 A3006 RMK AO2 SLP113 T01670094 10256 20156 50001

10-Day Weather Forecast

×

Almanac

Astronomy

Sep. 04, 2015 Rise Set
Actual Time
Civil Twilight
Nautical Twilight
Astronomical Twilight
Moon
Length of Visible Light
Length of Day
Tomorrow will be .
, % of the Moon is Illuminated

Today's Extremes

State Highs State Lows

Community

WunderPhotos

Upload Photos

1,852,132 photos uploaded!

WunderBlogs® & News

Nearby

Air Quality

  Air Quality AQ Index Pollutant
Not available.

Snow Depth

Station Depth Elevation

Earthquake Activity

City Distance Mag. Time & Date
Minimum magnitude displayed is 2.5.

Coastal Water Temperatures

Place Temperature

Stations

Nearby Weather Stations

Station Location Temp. Windchill Dew Point Humidity Wind Precip. Elev Updated Type